Time;durP1;ratioP1;P1;durP2;ratioP2;P2;SDS_P1;SDS_P2;PMS_P1;PMS_P2;Temp;Humidity;BMP_temperature;BMP_pressure;BME280_temperature;BME280_humidity;BME280_pressure;Samples;Min_cycle;Max_cycle;Signal;HPM_P1;HPM_P2
2022/02/03 00:04:55;;;;;;;;;;;77.60;2227.20;;;;;;4808407;29;20390;-73
2022/02/03 00:07:30;;;;;;;;;;;77.70;2227.20;;;;;;4808306;29;20069;-72
2022/02/03 00:10:21;;;;;;;;;;;77.60;2227.20;;;;;;4808030;29;19913;-71
2022/02/03 00:26:18;;;;;;;;;;;77.60;2227.20;;;;;;4807744;29;20332;-72
2022/02/03 00:28:47;;;;;;;;;;;77.60;2227.20;;;;;;4807856;29;20011;-72
2022/02/03 00:31:37;;;;;;;;;;;77.60;2227.20;;;;;;4807633;29;19909;-72
2022/02/03 00:34:40;;;;;;;;;;;77.60;2227.20;;;;;;4806954;29;20354;-72
2022/02/03 00:37:08;;;;;;;;;;;77.60;2227.20;;;;;;4804601;29;20339;-72
2022/02/03 00:50:36;;;;;;;;;;;77.70;2227.20;;;;;;4807648;29;20385;-72
2022/02/03 00:53:05;;;;;;;;;;;77.70;2227.20;;;;;;4807470;29;20381;-72
2022/02/03 00:55:37;;;;;;;;;;;77.70;2227.20;;;;;;4807502;29;19913;-71
2022/02/03 00:58:03;;;;;;;;;;;77.60;2227.20;;;;;;4807156;29;19909;-72
2022/02/03 01:00:33;;;;;;;;;;;77.60;2227.20;;;;;;4807162;29;20330;-72
2022/02/03 01:03:07;;;;;;;;;;;77.60;2227.20;;;;;;4807088;29;19913;-71
2022/02/03 01:05:34;;;;;;;;;;;77.60;2227.20;;;;;;4807047;29;20371;-72
2022/02/03 01:08:04;;;;;;;;;;;77.60;2227.20;;;;;;4807176;29;20024;-72
2022/02/03 01:10:37;;;;;;;;;;;77.60;2227.20;;;;;;4807011;29;19909;-73
2022/02/03 01:13:22;;;;;;;;;;;77.60;2227.20;;;;;;4806948;29;20347;-72
2022/02/03 01:16:01;;;;;;;;;;;77.60;2227.20;;;;;;4806983;29;20248;-72
2022/02/03 01:18:56;;;;;;;;;;;77.60;2227.20;;;;;;4806881;29;19913;-72
2022/02/03 01:21:57;;;;;;;;;;;77.60;2227.20;;;;;;4806492;29;19920;-72
2022/02/03 01:53:40;;;;;;;;;;;77.50;2227.20;;;;;;4806938;29;19916;-68
2022/02/03 01:56:07;;;;;;;;;;;77.50;2227.20;;;;;;4806427;29;19909;-67
2022/02/03 01:58:45;;;;;;;;;;;77.50;2227.20;;;;;;4806421;29;19966;-67
2022/02/03 02:01:23;;;;;;;;;;;77.50;2227.20;;;;;;4806796;29;20008;-68
2022/02/03 02:03:54;;;;;;;;;;;77.50;2227.20;;;;;;4806435;29;19938;-67
2022/02/03 02:06:39;;;;;;;;;;;77.50;2227.20;;;;;;4806400;29;19916;-67
2022/02/03 02:09:07;;;;;;;;;;;77.50;2227.20;;;;;;4806994;29;19909;-67
2022/02/03 02:11:52;;;;;;;;;;;77.50;2227.20;;;;;;4806411;29;19915;-67
2022/02/03 02:18:08;;;;;;;;;;;77.40;2227.20;;;;;;4806430;29;19934;-67
2022/02/03 02:39:23;;;;;;;;;;;77.20;2227.20;;;;;;4809194;29;19939;-67
2022/02/03 02:44:38;;;;;;;;;;;77.10;2227.20;;;;;;4809508;29;19920;-69
2022/02/03 02:47:11;;;;;;;;;;;77.10;2227.20;;;;;;4809375;29;19916;-71
2022/02/03 02:49:44;;;;;;;;;;;77.10;2227.20;;;;;;4793112;29;20294;-68
2022/02/03 02:52:15;;;;;;;;;;;77.00;2227.20;;;;;;4809605;29;19932;-67
2022/02/03 02:54:58;;;;;;;;;;;77.00;2227.20;;;;;;4809281;29;19956;-67
2022/02/03 03:00:38;;;;;;;;;;;77.00;2227.20;;;;;;4809077;29;19973;-70
2022/02/03 03:03:39;;;;;;;;;;;76.90;2227.20;;;;;;4808973;29;19913;-69
2022/02/03 03:31:47;;;;;;;;;;;77.10;2227.20;;;;;;4808723;29;19916;-68
2022/02/03 03:34:32;;;;;;;;;;;77.20;2227.20;;;;;;4808625;29;19909;-67
2022/02/03 03:36:59;;;;;;;;;;;77.20;2227.20;;;;;;4808879;29;20300;-71
2022/02/03 03:39:32;;;;;;;;;;;77.10;2227.20;;;;;;4808273;29;20008;-71
2022/02/03 03:41:59;;;;;;;;;;;77.20;2227.20;;;;;;4808373;29;20359;-68
2022/02/03 03:44:26;;;;;;;;;;;77.20;2227.20;;;;;;4808314;29;19909;-68
2022/02/03 03:46:53;;;;;;;;;;;77.10;2227.20;;;;;;4808030;29;19909;-71
2022/02/03 03:49:42;;;;;;;;;;;77.10;2227.20;;;;;;4807653;29;19913;-68
2022/02/03 03:52:22;;;;;;;;;;;77.00;2227.20;;;;;;4808014;29;19909;-70
2022/02/03 03:54:54;;;;;;;;;;;77.00;2227.20;;;;;;4808207;29;19928;-71
2022/02/03 04:29:37;;;;;;;;;;;51.90;2227.20;;;;;;4808011;29;19916;-68
2022/02/03 04:37:49;;;;;;;;;;;51.90;2227.20;;;;;;4807559;29;20023;-67
2022/02/03 04:56:42;;;;;;;;;;;51.90;2227.20;;;;;;4807282;29;19916;-67
2022/02/03 04:59:46;;;;;;;;;;;51.90;2227.20;;;;;;4807144;29;19924;-68
2022/02/03 05:07:31;;;;;;;;;;;51.80;2227.20;;;;;;4807406;29;20552;-68
2022/02/03 05:10:43;;;;;;;;;;;51.80;2227.20;;;;;;4807055;29;19910;-68
2022/02/03 05:13:25;;;;;;;;;;;51.80;2227.20;;;;;;4807154;29;20323;-67
2022/02/03 05:19:32;;;;;;;;;;;51.80;2227.20;;;;;;4807440;29;20363;-67
2022/02/03 05:22:22;;;;;;;;;;;51.80;2227.20;;;;;;4806619;29;19925;-70
2022/02/03 05:42:55;;;;;;;;;;;51.80;2227.20;;;;;;4780964;29;19915;-68
2022/02/03 05:45:55;;;;;;;;;;;51.70;2227.20;;;;;;4806024;29;19960;-67
2022/02/03 06:14:52;;;;;;;;;;;51.80;2227.20;;;;;;4809996;29;19909;-68
2022/02/03 06:17:33;;;;;;;;;;;51.80;2227.20;;;;;;4809923;29;19916;-68
2022/02/03 06:22:53;;;;;;;;;;;51.90;2227.20;;;;;;4809802;29;19979;-69
2022/02/03 06:27:48;;;;;;;;;;;52.00;2227.20;;;;;;4809790;29;19909;-68
2022/02/03 06:30:17;;;;;;;;;;;52.00;2227.20;;;;;;4809460;29;19938;-67
2022/02/03 06:32:43;;;;;;;;;;;52.00;2227.20;;;;;;4809768;29;19916;-67
2022/02/03 06:35:10;;;;;;;;;;;52.00;2227.20;;;;;;4809605;29;20290;-70
2022/02/03 06:37:37;;;;;;;;;;;52.10;2227.20;;;;;;4810070;29;19913;-68
2022/02/03 06:40:06;;;;;;;;;;;52.10;2227.20;;;;;;4809510;29;19961;-71
2022/02/03 06:42:32;;;;;;;;;;;52.10;2227.20;;;;;;4809474;29;19913;-67
2022/02/03 06:45:14;;;;;;;;;;;52.10;2227.20;;;;;;4809414;29;19915;-69
2022/02/03 06:47:55;;;;;;;;;;;76.80;2227.20;;;;;;4809736;29;20327;-71
2022/02/03 06:50:29;;;;;;;;;;;76.80;2227.20;;;;;;4809476;29;19916;-68
2022/02/03 06:53:02;;;;;;;;;;;76.90;2227.20;;;;;;4809586;29;19997;-67
2022/02/03 06:55:53;;;;;;;;;;;76.90;2227.20;;;;;;4809456;29;19944;-68
2022/02/03 06:58:28;;;;;;;;;;;77.00;2227.20;;;;;;4809252;29;20016;-71
2022/02/03 07:01:13;;;;;;;;;;;77.00;2227.20;;;;;;4809501;29;19940;-70
2022/02/03 07:03:42;;;;;;;;;;;77.00;2227.20;;;;;;4809418;29;19915;-67
2022/02/03 07:06:08;;;;;;;;;;;77.00;2227.20;;;;;;4808939;29;19908;-69
2022/02/03 07:08:36;;;;;;;;;;;77.00;2227.20;;;;;;4809090;29;19909;-70
2022/02/03 07:11:02;;;;;;;;;;;77.10;2227.20;;;;;;4808771;29;19999;-71
2022/02/03 07:13:28;;;;;;;;;;;77.20;2227.20;;;;;;4808933;29;20003;-67
2022/02/03 07:15:54;;;;;;;;;;;77.20;2227.20;;;;;;4808536;29;20518;-68
2022/02/03 07:18:19;;;;;;;;;;;77.20;2227.20;;;;;;4808082;29;19909;-67
2022/02/03 07:20:45;;;;;;;;;;;77.30;2227.20;;;;;;4808849;29;19940;-66
2022/02/03 07:23:11;;;;;;;;;;;77.30;2227.20;;;;;;4806693;29;19921;-67
2022/02/03 07:25:37;;;;;;;;;;;77.30;2227.20;;;;;;4808321;29;20286;-67
2022/02/03 07:28:03;;;;;;;;;;;77.30;2227.20;;;;;;4809063;29;19975;-71
2022/02/03 07:30:29;;;;;;;;;;;77.30;2227.20;;;;;;4808443;29;19913;-71
2022/02/03 07:32:57;;;;;;;;;;;77.40;2227.20;;;;;;4808694;29;20361;-67
2022/02/03 07:35:23;;;;;;;;;;;77.40;2227.20;;;;;;4808582;29;19913;-66
2022/02/03 07:37:51;;;;;;;;;;;77.50;2227.20;;;;;;4808558;29;19909;-67
2022/02/03 07:40:17;;;;;;;;;;;77.50;2227.20;;;;;;4808450;29;19921;-72
2022/02/03 07:42:48;;;;;;;;;;;77.60;2227.20;;;;;;4808239;29;19958;-68
2022/02/03 07:45:15;;;;;;;;;;;77.70;2227.20;;;;;;4808395;29;20012;-71
2022/02/03 07:47:44;;;;;;;;;;;102.40;2227.20;;;;;;4792231;29;19991;-67
2022/02/03 07:50:10;;;;;;;;;;;77.70;2227.20;;;;;;4808285;29;20283;-67
2022/02/03 07:52:36;;;;;;;;;;;102.40;2227.20;;;;;;4808044;29;19916;-67
2022/02/03 07:55:02;;;;;;;;;;;102.40;2227.20;;;;;;4808290;29;19962;-71
2022/02/03 07:57:27;;;;;;;;;;;102.50;2227.20;;;;;;4808200;29;20428;-68
2022/02/03 07:59:55;;;;;;;;;;;102.50;2227.20;;;;;;4808089;29;19917;-70
2022/02/03 08:02:21;;;;;;;;;;;102.50;2227.20;;;;;;4808146;29;19909;-73
2022/02/03 08:04:48;;;;;;;;;;;102.50;2227.20;;;;;;4808090;29;19915;-72
2022/02/03 08:07:17;;;;;;;;;;;102.50;2227.20;;;;;;4808080;29;19909;-73
2022/02/03 08:10:01;;;;;;;;;;;102.40;2227.20;;;;;;4808083;29;19968;-72
2022/02/03 08:12:34;;;;;;;;;;;102.50;2227.20;;;;;;4807965;29;19917;-73
2022/02/03 08:15:01;;;;;;;;;;;102.60;2227.20;;;;;;4806928;29;19937;-73
2022/02/03 08:17:37;;;;;;;;;;;102.70;2227.20;;;;;;4807280;29;20371;-75
2022/02/03 08:20:07;;;;;;;;;;;102.70;2227.20;;;;;;4806398;29;19917;-71
2022/02/03 08:22:41;;;;;;;;;;;102.80;2227.20;;;;;;4790395;29;19921;-71
2022/02/03 08:27:53;;;;;;;;;;;103.00;2227.20;;;;;;4807191;29;19920;-69
2022/02/03 08:32:47;;;;;;;;;;;103.30;2227.20;;;;;;4807113;29;20003;-69
2022/02/03 08:35:34;;;;;;;;;;;103.30;2227.20;;;;;;4805831;29;19918;-71
2022/02/03 08:43:14;;;;;;;;;;;128.40;2252.80;;;;;;4806692;29;20283;-70
2022/02/03 08:45:40;;;;;;;;;;;128.50;2252.80;;;;;;4806956;29;19909;-70
2022/02/03 08:48:06;;;;;;;;;;;128.70;2252.80;;;;;;4806996;29;19920;-73
2022/02/03 08:50:33;;;;;;;;;;;153.60;2252.80;;;;;;4806774;29;20349;-68
2022/02/03 08:53:06;;;;;;;;;;;153.80;2252.80;;;;;;4806689;29;19913;-67
2022/02/03 09:59:15;;;;;;;;;;;640.10;742.40;;;;;;4809720;29;19917;-68
2022/02/03 10:01:54;;;;;;;;;;;640.00;742.40;;;;;;4809223;29;19957;-68
2022/02/03 10:04:52;;;;;;;;;;;640.20;716.80;;;;;;4808825;29;19916;-69
2022/02/03 10:07:25;;;;;;;;;;;666.10;716.80;;;;;;4808939;29;19909;-69
2022/02/03 10:09:52;;;;;;;;;;;486.50;896.00;;;;;;4809061;29;19909;-70
2022/02/03 10:12:18;;;;;;;;;;;410.00;1049.60;;;;;;4808450;29;20012;-69
2022/02/03 10:14:46;;;;;;;;;;;358.60;1177.60;;;;;;4808860;29;19909;-69
2022/02/03 10:17:12;;;;;;;;;;;409.90;1049.60;;;;;;4808779;29;20338;-69
2022/02/03 10:19:41;;;;;;;;;;;384.90;1100.80;;;;;;4792457;29;19917;-66
2022/02/03 10:22:26;;;;;;;;;;;359.10;1075.20;;;;;;4808305;29;19921;-67
2022/02/03 10:25:00;;;;;;;;;;;307.40;1280.00;;;;;;4808657;29;19909;-67
2022/02/03 10:27:37;;;;;;;;;;;384.40;1100.80;;;;;;4808393;29;20382;-67
2022/02/03 10:30:12;;;;;;;;;;;461.70;896.00;;;;;;4792492;29;20381;-67
2022/02/03 10:32:43;;;;;;;;;;;384.10;1049.60;;;;;;4808548;29;19956;-69
2022/02/03 10:35:16;;;;;;;;;;;333.20;1177.60;;;;;;4809057;29;19916;-68
2022/02/03 10:37:47;;;;;;;;;;;410.40;1049.60;;;;;;4809032;29;19916;-68
2022/02/03 10:40:44;;;;;;;;;;;333.20;1177.60;;;;;;4808996;29;20386;-70
2022/02/03 10:43:52;;;;;;;;;;;307.70;1228.80;;;;;;4809219;29;19909;-71
2022/02/03 10:49:11;;;;;;;;;;;359.20;1100.80;;;;;;4809103;29;19920;-66
2022/02/03 10:57:35;;;;;;;;;;;307.20;1305.60;;;;;;4808887;29;19971;-68
2022/02/03 11:05:49;;;;;;;;;;;409.80;1049.60;;;;;;4806735;29;20394;-68
2022/02/03 11:08:20;;;;;;;;;;;358.50;1126.40;;;;;;4807363;29;19917;-68
2022/02/03 11:10:54;;;;;;;;;;;460.90;972.80;;;;;;4807590;29;19917;-67
2022/02/03 11:13:22;;;;;;;;;;;384.80;998.40;;;;;;4808349;29;19916;-69
2022/02/03 11:15:48;;;;;;;;;;;;;;;;;;4806082;29;19945;-68
2022/02/03 11:18:14;;;;;;;;;;;307.60;1203.20;;;;;;4805977;29;19916;-68
2022/02/03 11:20:41;;;;;;;;;;;282.10;1280.00;;;;;;4808460;29;19921;-71
2022/02/03 11:23:29;;;;;;;;;;;282.40;1280.00;;;;;;4807974;29;20073;-69
2022/02/03 11:39:50;;;;;;;;;;;333.10;1203.20;;;;;;4807611;29;19917;-74
2022/02/03 11:56:16;;;;;;;;;;;;;;;;;;4777094;29;19913;-75
2022/02/03 12:01:36;;;;;;;;;;;;;;;;;;4806654;29;19936;-73
2022/02/03 12:07:10;;;;;;;;;;;;;;;;;;4791237;29;19920;-73
2022/02/03 12:12:57;;;;;;;;;;;230.70;1408.00;;;;;;4806543;29;19909;-70
2022/02/03 12:20:29;;;;;;;;;;;256.70;1331.20;;;;;;4805663;29;19917;-72
2022/02/03 12:23:04;;;;;;;;;;;256.80;1331.20;;;;;;4804369;29;19921;-70
2022/02/03 12:25:51;;;;;;;;;;;256.40;1382.40;;;;;;4803764;29;19916;-70
2022/02/03 12:39:19;;;;;;;;;;;281.60;1408.00;;;;;;4807781;29;20314;-72
2022/02/03 12:42:01;;;;;;;;;;;;;;;;;;4807554;29;19909;-71
2022/02/03 12:44:29;;;;;;;;;;;231.00;1459.20;;;;;;4807760;29;19909;-71
2022/02/03 12:47:01;;;;;;;;;;;230.70;1484.80;;;;;;4807411;29;19960;-71
2022/02/03 12:49:29;;;;;;;;;;;307.70;1638.40;;;;;;4807353;29;20315;-72
2022/02/03 12:51:56;;;;;;;;;;;307.70;1228.80;;;;;;4807400;29;20294;-73
2022/02/03 12:54:22;;;;;;;;;;;308.00;1254.40;;;;;;4806551;29;20334;-72
2022/02/03 12:56:48;;;;;;;;;;;359.20;1152.00;;;;;;4806738;29;19909;-72
2022/02/03 12:59:17;;;;;;;;;;;384.20;1075.20;;;;;;4807074;29;19916;-72
2022/02/03 13:01:45;;;;;;;;;;;333.30;1177.60;;;;;;4807197;29;19909;-73
2022/02/03 13:04:17;;;;;;;;;;;282.50;1228.80;;;;;;4807026;29;19909;-72
2022/02/03 13:07:00;;;;;;;;;;;256.60;1305.60;;;;;;4807033;29;19932;-72
2022/02/03 13:09:31;;;;;;;;;;;384.00;1100.80;;;;;;4807110;29;19917;-72
2022/02/03 13:12:08;;;;;;;;;;;409.90;1049.60;;;;;;4806998;29;19910;-73
2022/02/03 13:14:44;;;;;;;;;;;461.20;947.20;;;;;;4806949;29;20282;-72
2022/02/03 13:17:15;;;;;;;;;;;486.90;870.40;;;;;;4806251;29;19913;-71
2022/02/03 13:19:51;;;;;;;;;;;486.40;921.60;;;;;;4806873;29;19924;-73
2022/02/03 13:22:33;;;;;;;;;;;487.00;844.80;;;;;;4805924;29;19925;-72
2022/02/03 13:27:35;;;;;;;;;;;461.60;896.00;;;;;;4806642;29;19966;-72
2022/02/03 13:30:09;;;;;;;;;;;435.90;921.60;;;;;;4806208;29;20325;-72
2022/02/03 13:32:45;;;;;;;;;;;384.80;998.40;;;;;;4804794;29;19909;-72
2022/02/03 13:35:45;;;;;;;;;;;358.90;1075.20;;;;;;4806589;29;19909;-72
2022/02/03 13:38:04;;;;;;;;;;;410.10;1049.60;;;;;;4805535;29;19909;-72
2022/02/03 13:40:30;;;;;;;;;;;512.40;844.80;;;;;;4805852;29;19939;-73
2022/02/03 13:43:04;;;;;;;;;;;435.90;972.80;;;;;;4790233;29;20337;-71
2022/02/03 13:45:30;;;;;;;;;;;;;;;;;;4806263;29;19916;-74
2022/02/03 13:47:56;;;;;;;;;;;537.80;896.00;;;;;;4806495;29;19913;-73
2022/02/03 13:50:23;;;;;;;;;;;512.20;819.20;;;;;;4806460;29;19958;-71
2022/02/03 13:53:08;;;;;;;;;;;461.50;921.60;;;;;;4806423;29;19909;-71
2022/02/03 14:28:53;;;;;;;;;;;409.80;998.40;;;;;;4750977;30;19921;-72
2022/02/03 14:31:19;;;;;;;;;;;358.90;1075.20;;;;;;4750647;30;19910;-74
2022/02/03 14:33:45;;;;;;;;;;;332.90;1177.60;;;;;;4752562;30;19917;-74
2022/02/03 14:36:15;;;;;;;;;;;;;;;;;;4753897;30;19917;-73
2022/02/03 14:41:34;;;;;;;;;;;256.50;1305.60;;;;;;4753731;30;20146;-72
2022/02/03 14:44:01;;;;;;;;;;;256.20;1382.40;;;;;;4753846;30;19970;-74
2022/02/03 14:46:27;;;;;;;;;;;256.30;1408.00;;;;;;4753087;30;21299;-73
2022/02/03 14:48:52;;;;;;;;;;;256.60;1382.40;;;;;;4752952;30;19951;-71
2022/02/03 14:51:24;;;;;;;;;;;256.80;1356.80;;;;;;4737055;30;19921;-74
2022/02/03 14:53:55;;;;;;;;;;;256.40;2124.80;;;;;;4752144;30;19910;-75
2022/02/03 14:59:05;;;;;;;;;;;256.00;1433.60;;;;;;4778772;29;19924;-73
2022/02/03 15:01:34;;;;;;;;;;;231.30;1433.60;;;;;;4808449;29;20003;-74
2022/02/03 15:04:02;;;;;;;;;;;231.10;1459.20;;;;;;4808199;29;19909;-72
2022/02/03 15:06:34;;;;;;;;;;;231.20;1484.80;;;;;;4808361;29;19931;-73
2022/02/03 15:14:12;;;;;;;;;;;230.70;1536.00;;;;;;4807916;29;19958;-69
2022/02/03 15:16:38;;;;;;;;;;;230.40;1587.20;;;;;;4807989;29;19909;-70
2022/02/03 15:19:04;;;;;;;;;;;205.70;1587.20;;;;;;4807445;29;20290;-69
2022/02/03 15:21:29;;;;;;;;;;;205.70;1612.80;;;;;;4807574;29;20359;-70
2022/02/03 15:23:55;;;;;;;;;;;230.40;1587.20;;;;;;4791219;29;19920;-71
2022/02/03 15:26:21;;;;;;;;;;;205.70;1612.80;;;;;;4807536;29;19917;-71
2022/02/03 15:28:47;;;;;;;;;;;205.50;1638.40;;;;;;4807440;29;19936;-71
2022/02/03 15:31:13;;;;;;;;;;;205.40;1638.40;;;;;;4807507;29;19913;-71
2022/02/03 15:33:43;;;;;;;;;;;205.30;1664.00;;;;;;4808171;29;19915;-71
2022/02/03 15:36:12;;;;;;;;;;;205.50;1638.40;;;;;;4807472;29;19913;-71
2022/02/03 15:38:45;;;;;;;;;;;205.50;1638.40;;;;;;4807709;29;20380;-69
2022/02/03 15:41:19;;;;;;;;;;;205.30;1638.40;;;;;;4807477;29;19996;-71
2022/02/03 15:43:45;;;;;;;;;;;205.10;1638.40;;;;;;4807185;29;19970;-71
2022/02/03 15:46:13;;;;;;;;;;;205.00;1664.00;;;;;;4806907;29;19910;-71
2022/02/03 15:48:50;;;;;;;;;;;180.10;1689.60;;;;;;4807638;29;19920;-70
2022/02/03 16:17:37;;;;;;;;;;;179.40;1792.00;;;;;;4806877;29;20359;-69
2022/02/03 16:20:14;;;;;;;;;;;179.30;1817.60;;;;;;4806407;29;20371;-69
2022/02/03 16:54:46;;;;;;;;;;;153.90;1945.60;;;;;;4806347;29;19917;-68
2022/02/03 16:57:18;;;;;;;;;;;153.80;1945.60;;;;;;4805545;29;19909;-66
2022/02/03 17:00:26;;;;;;;;;;;153.60;1971.20;;;;;;4790181;29;19921;-68
2022/02/03 17:02:32;;;;;;;;;;;153.60;1945.60;;;;;;4796592;29;19913;-68
2022/02/03 17:04:58;;;;;;;;;;;128.90;1996.80;;;;;;4806196;29;19909;-68
2022/02/03 17:07:24;;;;;;;;;;;128.80;2022.40;;;;;;4805828;29;20004;-69
2022/02/03 17:09:50;;;;;;;;;;;128.80;2227.20;;;;;;4806192;29;19909;-77
2022/02/03 17:12:16;;;;;;;;;;;128.70;1996.80;;;;;;4789579;29;19913;-71
2022/02/03 17:14:42;;;;;;;;;;;128.80;2022.40;;;;;;4806043;29;19917;-71
2022/02/03 17:17:08;;;;;;;;;;;128.70;2022.40;;;;;;4806087;29;20474;-71
2022/02/03 17:19:36;;;;;;;;;;;128.60;2048.00;;;;;;4805904;29;19917;-71
2022/02/03 17:22:02;;;;;;;;;;;128.40;2073.60;;;;;;4805332;29;20291;-69
2022/02/03 17:24:28;;;;;;;;;;;128.30;2099.20;;;;;;4805486;29;19920;-71
2022/02/03 17:27:01;;;;;;;;;;;128.20;2099.20;;;;;;4806153;29;19913;-69
2022/02/03 17:29:34;;;;;;;;;;;128.10;2099.20;;;;;;4803529;29;20009;-70
2022/02/03 17:32:09;;;;;;;;;;;128.20;2124.80;;;;;;4805939;29;19916;-69
2022/02/03 18:07:23;;;;;;;;;;;102.60;2227.20;;;;;;4804532;29;19975;-69
2022/02/03 18:29:28;;;;;;;;;;;77.70;2227.20;;;;;;4806914;29;19913;-69
2022/02/03 18:50:29;;;;;;;;;;;77.40;2227.20;;;;;;4804856;29;20303;-70
2022/02/03 18:53:04;;;;;;;;;;;77.40;2227.20;;;;;;4805577;29;19909;-72
2022/02/03 18:55:52;;;;;;;;;;;77.60;2227.20;;;;;;4805071;29;19920;-68
2022/02/03 19:58:31;;;;;;;;;;;76.80;2227.20;;;;;;4789198;30;19920;-69
2022/02/03 20:05:18;;;;;;;;;;;76.90;2227.20;;;;;;4789126;30;19909;-67
2022/02/03 20:07:56;;;;;;;;;;;76.90;2227.20;;;;;;4789383;30;19959;-69
2022/02/03 20:10:55;;;;;;;;;;;77.00;2227.20;;;;;;4802690;29;19997;-70
2022/02/03 20:13:13;;;;;;;;;;;77.00;2227.20;;;;;;4800502;29;19909;-71
2022/02/03 20:15:41;;;;;;;;;;;77.00;2227.20;;;;;;4806604;29;19992;-70
2022/02/03 20:18:11;;;;;;;;;;;77.00;2227.20;;;;;;4806181;29;19944;-71
2022/02/03 20:20:37;;;;;;;;;;;76.90;2227.20;;;;;;4807051;29;20386;-71
2022/02/03 20:23:07;;;;;;;;;;;76.80;2227.20;;;;;;4806426;29;19921;-71
2022/02/03 20:25:34;;;;;;;;;;;76.90;2227.20;;;;;;4806479;29;20424;-71
2022/02/03 20:28:02;;;;;;;;;;;76.90;2227.20;;;;;;4790509;29;20327;-71
2022/02/03 20:30:27;;;;;;;;;;;76.90;2227.20;;;;;;4806559;29;19931;-71
2022/02/03 20:32:53;;;;;;;;;;;76.90;2227.20;;;;;;4806526;29;20355;-71
2022/02/03 20:35:19;;;;;;;;;;;76.90;2227.20;;;;;;4806862;29;20282;-70
2022/02/03 20:37:44;;;;;;;;;;;76.90;2227.20;;;;;;4806714;29;20022;-70
2022/02/03 20:40:10;;;;;;;;;;;76.90;2227.20;;;;;;4806112;29;19921;-69
2022/02/03 20:42:36;;;;;;;;;;;76.80;2227.20;;;;;;4806625;29;19944;-70
2022/02/03 20:45:02;;;;;;;;;;;76.90;2227.20;;;;;;4806211;29;19913;-68
2022/02/03 20:47:30;;;;;;;;;;;76.80;2227.20;;;;;;4806584;29;19960;-69
2022/02/03 20:49:57;;;;;;;;;;;76.80;2227.20;;;;;;4790252;29;19909;-69
2022/02/03 20:52:23;;;;;;;;;;;76.80;2227.20;;;;;;4806605;29;20001;-69
2022/02/03 20:54:48;;;;;;;;;;;76.80;2227.20;;;;;;4805902;29;19970;-69
2022/02/03 20:57:14;;;;;;;;;;;76.80;2227.20;;;;;;4805882;29;19921;-68
2022/02/03 21:00:26;;;;;;;;;;;76.80;2227.20;;;;;;4802967;29;19921;-69
2022/02/03 21:05:16;;;;;;;;;;;76.80;2227.20;;;;;;4801757;29;19936;-69
2022/02/03 21:07:43;;;;;;;;;;;76.80;2227.20;;;;;;4806270;29;19917;-71
2022/02/03 21:10:11;;;;;;;;;;;76.80;2227.20;;;;;;4805687;29;20366;-70
2022/02/03 21:12:37;;;;;;;;;;;76.80;2227.20;;;;;;4805640;29;19913;-71
2022/02/03 21:15:05;;;;;;;;;;;76.90;2227.20;;;;;;4805868;29;20255;-71
2022/02/03 21:17:32;;;;;;;;;;;76.90;2227.20;;;;;;4806149;29;20686;-71
2022/02/03 21:20:06;;;;;;;;;;;76.90;2227.20;;;;;;4806001;29;19944;-71
2022/02/03 21:22:32;;;;;;;;;;;76.80;2227.20;;;;;;4802624;29;19960;-71
2022/02/03 21:25:03;;;;;;;;;;;76.80;2227.20;;;;;;4806821;29;19948;-72
2022/02/03 21:27:30;;;;;;;;;;;76.80;2227.20;;;;;;4806218;29;19927;-73
2022/02/03 21:29:56;;;;;;;;;;;52.10;2227.20;;;;;;4805540;29;19913;-76
2022/02/03 21:32:22;;;;;;;;;;;52.00;2227.20;;;;;;4788785;29;19990;-76
2022/02/03 21:34:52;;;;;;;;;;;52.00;2227.20;;;;;;4805986;29;19910;-69
2022/02/03 21:37:18;;;;;;;;;;;52.10;2227.20;;;;;;4805370;29;20350;-78
2022/02/03 21:39:43;;;;;;;;;;;76.80;2227.20;;;;;;4804389;29;19917;-71
2022/02/03 21:42:09;;;;;;;;;;;76.80;2227.20;;;;;;4805613;29;19913;-73
2022/02/03 21:44:35;;;;;;;;;;;52.10;2227.20;;;;;;4805922;29;20374;-69
2022/02/03 21:47:00;;;;;;;;;;;76.80;2227.20;;;;;;4805887;29;19991;-75
2022/02/03 21:49:26;;;;;;;;;;;76.80;2227.20;;;;;;4805931;29;20121;-77
2022/02/03 21:51:54;;;;;;;;;;;76.80;2227.20;;;;;;4805919;29;19924;-76
2022/02/03 21:54:20;;;;;;;;;;;76.80;2227.20;;;;;;4805322;29;20069;-70
2022/02/03 21:56:48;;;;;;;;;;;52.10;2227.20;;;;;;4805837;29;20000;-67
2022/02/03 21:59:15;;;;;;;;;;;52.10;2227.20;;;;;;4806104;29;19966;-68
2022/02/03 22:01:42;;;;;;;;;;;52.10;2227.20;;;;;;4806240;29;19916;-76
2022/02/03 22:04:08;;;;;;;;;;;52.10;2227.20;;;;;;4806015;29;19978;-77
2022/02/03 22:06:33;;;;;;;;;;;52.10;2227.20;;;;;;4806051;29;19913;-76
2022/02/03 22:08:59;;;;;;;;;;;52.10;2227.20;;;;;;4806149;29;19916;-73
2022/02/03 22:11:25;;;;;;;;;;;52.10;2227.20;;;;;;4806185;29;19920;-72
2022/02/03 22:13:51;;;;;;;;;;;52.10;2227.20;;;;;;4806087;29;19910;-75
2022/02/03 22:16:22;;;;;;;;;;;52.00;2227.20;;;;;;4806084;29;19920;-76
2022/02/03 22:18:48;;;;;;;;;;;52.00;2227.20;;;;;;4806268;29;20019;-77
2022/02/03 22:21:29;;;;;;;;;;;52.00;2227.20;;;;;;4806646;29;20444;-77
2022/02/03 22:26:58;;;;;;;;;;;52.10;2227.20;;;;;;4806723;29;19909;-66
2022/02/03 22:42:50;;;;;;;;;;;51.90;2227.20;;;;;;4806289;29;19970;-66
2022/02/03 22:45:23;;;;;;;;;;;51.90;2227.20;;;;;;4806516;29;19909;-74
2022/02/03 22:48:02;;;;;;;;;;;51.90;2227.20;;;;;;4805778;29;19917;-66
2022/02/03 22:50:28;;;;;;;;;;;51.90;2227.20;;;;;;4806204;29;19909;-75
2022/02/03 22:52:54;;;;;;;;;;;52.00;2227.20;;;;;;4806144;29;19958;-66
2022/02/03 22:55:19;;;;;;;;;;;52.00;2227.20;;;;;;4807672;29;19909;-75
2022/02/03 22:57:59;;;;;;;;;;;52.00;2227.20;;;;;;4809365;29;19932;-66
2022/02/03 23:00:42;;;;;;;;;;;52.00;2227.20;;;;;;4809584;29;19917;-66
2022/02/03 23:03:07;;;;;;;;;;;52.00;2227.20;;;;;;4809339;29;19913;-68
2022/02/03 23:05:33;;;;;;;;;;;52.00;2227.20;;;;;;4809288;29;19909;-67
2022/02/03 23:08:18;;;;;;;;;;;52.00;2227.20;;;;;;4809182;29;20359;-67
2022/02/03 23:11:00;;;;;;;;;;;52.00;2227.20;;;;;;4809521;29;19916;-66
2022/02/03 23:16:34;;;;;;;;;;;52.00;2227.20;;;;;;4809406;29;19936;-66
2022/02/03 23:22:10;;;;;;;;;;;52.00;2227.20;;;;;;4808895;29;20020;-72
2022/02/03 23:24:37;;;;;;;;;;;51.90;2227.20;;;;;;4809246;29;20355;-66
2022/02/03 23:28:02;;;;;;;;;;;52.00;2227.20;;;;;;4808899;29;19913;-68
2022/02/03 23:29:50;;;;;;;;;;;51.90;2227.20;;;;;;4798990;29;19966;-66
2022/02/03 23:32:16;;;;;;;;;;;51.90;2227.20;;;;;;4808822;29;19915;-66
2022/02/03 23:34:46;;;;;;;;;;;51.90;2227.20;;;;;;4808862;29;20019;-74
2022/02/03 23:37:12;;;;;;;;;;;51.90;2227.20;;;;;;4808726;29;19909;-66
2022/02/03 23:39:49;;;;;;;;;;;51.90;2227.20;;;;;;4808605;29;20350;-66
2022/02/03 23:50:55;;;;;;;;;;;51.90;2227.20;;;;;;4808822;29;20275;-66
